Time;durP1;ratioP1;P1;durP2;ratioP2;P2;SDS_P1;SDS_P2;PMS_P1;PMS_P2;Temp;Humidity;BMP_temperature;BMP_pressure;BME280_temperature;BME280_humidity;BME280_pressure;Samples;Min_cycle;Max_cycle;Signal;HPM_P1;HPM_P2
2022/07/31 00:00:11;;;;;;;1.47;0.90;;;22.70;82.80;;;;;;6156019;23;20990;-76
2022/07/31 00:02:38;;;;;;;1.43;0.90;;;22.70;83.20;;;;;;6137239;23;20455;-78
2022/07/31 00:05:08;;;;;;;1.47;0.90;;;22.60;83.50;;;;;;6154181;23;20428;-77
2022/07/31 00:07:35;;;;;;;1.47;0.90;;;22.60;83.90;;;;;;6153454;23;20452;-78
2022/07/31 00:10:04;;;;;;;1.43;0.90;;;22.50;83.90;;;;;;6154717;23;20531;-77
2022/07/31 00:12:31;;;;;;;1.50;1.00;;;22.50;84.20;;;;;;6139199;23;20455;-77
2022/07/31 00:14:59;;;;;;;1.50;0.90;;;22.40;84.50;;;;;;6154496;23;20421;-78
2022/07/31 00:17:26;;;;;;;1.50;0.90;;;22.40;84.80;;;;;;6139395;23;20487;-78
2022/07/31 00:19:57;;;;;;;1.47;0.90;;;22.30;84.70;;;;;;6154283;23;20421;-77
2022/07/31 00:22:24;;;;;;;1.50;1.07;;;22.30;85.30;;;;;;6140383;23;20791;-77
2022/07/31 00:24:51;;;;;;;1.50;0.90;;;22.30;85.30;;;;;;6162837;23;20428;-78
2022/07/31 00:27:18;;;;;;;1.43;0.90;;;22.30;84.90;;;;;;6175223;23;20437;-78
2022/07/31 00:29:46;;;;;;;1.40;0.90;;;22.20;84.60;;;;;;6161995;23;20445;-78
2022/07/31 00:32:15;;;;;;;1.40;0.87;;;22.20;84.40;;;;;;6139480;23;21030;-78
2022/07/31 00:34:42;;;;;;;1.47;0.90;;;22.20;84.50;;;;;;6155145;23;20483;-78
2022/07/31 00:37:09;;;;;;;1.47;0.90;;;22.20;83.90;;;;;;6145320;23;20592;-79
2022/07/31 00:39:37;;;;;;;1.43;0.90;;;22.10;83.90;;;;;;6157402;23;20417;-77
2022/07/31 00:42:06;;;;;;;1.47;0.90;;;22.10;84.20;;;;;;6141578;23;20782;-78
2022/07/31 00:44:33;;;;;;;1.43;0.90;;;22.10;84.20;;;;;;6167259;23;20428;-78
2022/07/31 00:47:00;;;;;;;1.47;0.90;;;22.00;84.10;;;;;;6142638;23;20539;-78
2022/07/31 00:49:29;;;;;;;1.47;0.90;;;22.00;84.30;;;;;;6169790;23;20476;-77
2022/07/31 00:51:56;;;;;;;1.50;1.00;;;22.00;84.50;;;;;;6146922;23;20444;-79
2022/07/31 00:54:24;;;;;;;1.43;0.90;;;22.00;84.40;;;;;;6175217;23;20504;-77
2022/07/31 00:56:51;;;;;;;1.47;0.90;;;22.00;85.00;;;;;;6167019;23;20447;-79
2022/07/31 00:59:18;;;;;;;1.50;0.90;;;22.00;85.00;;;;;;6157225;23;20724;-77
2022/07/31 01:01:48;;;;;;;1.47;0.90;;;22.00;85.10;;;;;;6155575;23;20427;-77
2022/07/31 01:04:17;;;;;;;1.47;0.90;;;22.00;85.00;;;;;;6157709;23;20922;-77
2022/07/31 01:06:47;;;;;;;1.47;0.90;;;22.00;85.20;;;;;;6140962;23;20456;-77
2022/07/31 01:09:15;;;;;;;1.47;0.90;;;22.00;84.80;;;;;;6157100;23;20488;-78
2022/07/31 01:11:50;;;;;;;1.43;0.90;;;22.00;84.90;;;;;;6156919;23;20495;-78
2022/07/31 01:14:20;;;;;;;1.47;0.90;;;22.00;85.00;;;;;;6155756;23;20779;-78
2022/07/31 01:16:49;;;;;;;1.47;0.90;;;21.90;85.00;;;;;;6133313;23;20804;-78
2022/07/31 01:19:27;;;;;;;1.50;0.90;;;22.00;84.90;;;;;;6156262;23;20420;-78
2022/07/31 01:22:10;;;;;;;1.43;0.90;;;21.90;84.80;;;;;;6141011;23;20472;-76
2022/07/31 01:24:46;;;;;;;1.47;0.90;;;21.90;85.30;;;;;;6156263;23;20448;-76
2022/07/31 01:27:27;;;;;;;1.43;0.90;;;21.90;85.40;;;;;;6141295;23;20547;-77
2022/07/31 01:30:01;;;;;;;1.43;0.90;;;21.80;85.40;;;;;;6157453;23;20452;-78
2022/07/31 01:32:32;;;;;;;1.70;1.57;;;21.80;85.50;;;;;;6155367;23;20437;-78
2022/07/31 01:35:07;;;;;;;1.43;0.90;;;21.80;85.80;;;;;;6154788;23;20421;-78
2022/07/31 01:37:40;;;;;;;1.43;0.90;;;21.80;85.70;;;;;;6140110;23;20547;-78
2022/07/31 01:40:12;;;;;;;1.43;0.90;;;21.80;86.00;;;;;;6154925;23;20401;-76
2022/07/31 01:42:44;;;;;;;1.43;0.90;;;21.80;86.00;;;;;;6164152;23;20402;-77
2022/07/31 01:45:15;;;;;;;1.50;0.93;;;21.80;86.10;;;;;;6156107;23;20405;-77
2022/07/31 01:47:44;;;;;;;1.47;0.90;;;21.70;86.20;;;;;;6155371;23;20512;-77
2022/07/31 01:50:12;;;;;;;1.47;0.90;;;21.70;86.40;;;;;;6155570;23;20444;-77
2022/07/31 01:52:41;;;;;;;1.43;0.90;;;21.60;86.60;;;;;;6139382;23;20491;-77
2022/07/31 01:55:11;;;;;;;1.47;0.90;;;21.60;86.50;;;;;;6156259;23;20456;-78
2022/07/31 01:57:40;;;;;;;1.47;0.90;;;21.60;86.40;;;;;;6155668;23;20472;-78
2022/07/31 02:00:10;;;;;;;1.43;0.90;;;21.50;86.70;;;;;;6154877;23;20421;-77
2022/07/31 02:02:40;;;;;;;1.47;0.90;;;21.50;87.20;;;;;;6138651;23;20445;-79
2022/07/31 02:05:10;;;;;;;1.47;0.90;;;21.50;86.90;;;;;;6165084;23;20459;-77
2022/07/31 02:07:39;;;;;;;1.40;0.90;;;21.50;86.70;;;;;;6140729;23;20912;-76
2022/07/31 02:10:09;;;;;;;1.47;0.90;;;21.50;87.20;;;;;;6155808;23;20476;-76
2022/07/31 02:12:38;;;;;;;1.47;0.90;;;21.50;87.40;;;;;;6154641;23;20814;-78
2022/07/31 02:15:07;;;;;;;1.50;0.90;;;21.50;87.50;;;;;;6155959;23;20523;-78
2022/07/31 02:17:35;;;;;;;1.43;0.90;;;21.40;87.40;;;;;;6165594;23;20437;-79
2022/07/31 02:20:07;;;;;;;1.50;0.90;;;21.40;87.70;;;;;;6156185;23;20427;-78
2022/07/31 02:22:35;;;;;;;1.47;0.90;;;21.40;87.30;;;;;;6155924;23;20405;-78
2022/07/31 02:25:02;;;;;;;1.47;0.90;;;21.30;87.50;;;;;;6156726;23;20421;-78
2022/07/31 02:27:31;;;;;;;1.50;0.90;;;21.30;87.50;;;;;;6156299;23;20444;-78
2022/07/31 02:30:02;;;;;;;1.50;0.90;;;21.30;87.60;;;;;;6165080;23;20425;-77
2022/07/31 02:32:30;;;;;;;1.47;1.00;;;21.20;87.70;;;;;;6148541;23;20496;-77
2022/07/31 02:35:00;;;;;;;1.43;0.90;;;21.20;88.00;;;;;;6157006;23;20421;-78
2022/07/31 02:37:30;;;;;;;1.47;0.90;;;21.20;87.50;;;;;;6142932;23;20448;-78
2022/07/31 02:40:00;;;;;;;1.43;0.90;;;21.20;88.30;;;;;;6155391;23;20535;-78
2022/07/31 02:42:28;;;;;;;1.47;0.90;;;21.20;89.20;;;;;;6141096;23;21144;-78
2022/07/31 02:44:56;;;;;;;1.50;0.90;;;21.20;89.30;;;;;;6160405;23;20451;-78
2022/07/31 02:47:24;;;;;;;1.47;0.90;;;21.20;89.20;;;;;;6139680;23;20714;-78
2022/07/31 02:49:53;;;;;;;1.43;0.90;;;21.20;89.40;;;;;;6163385;23;20424;-78
2022/07/31 02:52:20;;;;;;;1.50;0.90;;;21.20;88.90;;;;;;6154522;23;20568;-77
2022/07/31 02:54:50;;;;;;;1.47;0.90;;;21.20;88.90;;;;;;6155549;23;20420;-77
2022/07/31 02:57:17;;;;;;;1.47;0.90;;;21.20;88.50;;;;;;6155143;23;20441;-77
2022/07/31 02:59:45;;;;;;;1.47;0.90;;;21.20;88.30;;;;;;6155222;23;20954;-78
2022/07/31 03:02:12;;;;;;;1.43;0.90;;;21.20;88.20;;;;;;6138899;23;20445;-78
2022/07/31 03:04:39;;;;;;;1.43;0.90;;;21.20;88.10;;;;;;6154604;23;20683;-78
2022/07/31 03:07:06;;;;;;;1.47;0.87;;;21.20;88.50;;;;;;6154266;23;21026;-79
2022/07/31 03:09:35;;;;;;;1.43;0.90;;;21.20;88.00;;;;;;6165465;23;20496;-77
2022/07/31 03:12:04;;;;;;;1.50;0.90;;;21.20;88.30;;;;;;6138751;23;21143;-76
2022/07/31 03:14:33;;;;;;;1.50;0.90;;;21.10;88.10;;;;;;6154305;23;20527;-77
2022/07/31 03:17:01;;;;;;;1.43;0.90;;;21.10;88.30;;;;;;6138328;23;20995;-76
2022/07/31 03:19:29;;;;;;;1.47;0.90;;;21.10;88.70;;;;;;6154315;23;20484;-77
2022/07/31 03:21:56;;;;;;;1.43;0.90;;;21.10;88.50;;;;;;6155570;23;20428;-78
2022/07/31 03:24:25;;;;;;;1.43;0.90;;;21.10;88.60;;;;;;6166797;23;21063;-77
2022/07/31 03:26:52;;;;;;;1.40;0.90;;;21.20;88.50;;;;;;6140474;23;20707;-77
2022/07/31 03:29:21;;;;;;;1.47;0.90;;;21.20;88.10;;;;;;6155501;23;20504;-78
2022/07/31 03:31:48;;;;;;;1.43;0.90;;;21.20;88.20;;;;;;6139466;23;20500;-78
2022/07/31 03:34:16;;;;;;;1.43;0.90;;;21.20;88.60;;;;;;6164808;23;20469;-78
2022/07/31 03:36:43;;;;;;;1.43;0.90;;;21.20;88.50;;;;;;6138659;23;20452;-78
2022/07/31 03:39:10;;;;;;;1.47;0.90;;;21.20;88.10;;;;;;6163821;23;20485;-78
2022/07/31 03:41:38;;;;;;;1.47;0.90;;;21.20;88.50;;;;;;6138515;23;20456;-77
2022/07/31 03:44:05;;;;;;;1.47;0.90;;;21.20;88.30;;;;;;6153441;23;20432;-78
2022/07/31 03:46:34;;;;;;;1.47;0.90;;;21.20;88.20;;;;;;6146238;23;20464;-78
2022/07/31 03:49:01;;;;;;;1.47;0.90;;;21.20;90.00;;;;;;6154174;23;20436;-79
2022/07/31 03:51:32;;;;;;;1.43;0.90;;;21.20;89.70;;;;;;6139669;23;20452;-78
2022/07/31 03:53:59;;;;;;;1.47;0.90;;;21.10;90.70;;;;;;6153995;23;20508;-77
2022/07/31 03:56:28;;;;;;;1.47;0.90;;;21.10;90.30;;;;;;6139730;23;20453;-78
2022/07/31 03:58:55;;;;;;;1.40;0.90;;;21.10;90.00;;;;;;6153611;23;20428;-79
2022/07/31 04:01:23;;;;;;;1.50;0.90;;;21.00;90.20;;;;;;6138994;23;20806;-77
2022/07/31 04:03:57;;;;;;;1.50;0.90;;;21.00;90.60;;;;;;6153299;23;20741;-78
2022/07/31 04:06:24;;;;;;;1.43;0.90;;;21.00;90.30;;;;;;6138940;23;20480;-79
2022/07/31 04:08:52;;;;;;;1.50;1.00;;;20.90;90.80;;;;;;6154227;23;20421;-77
2022/07/31 04:11:19;;;;;;;1.50;0.90;;;20.90;90.60;;;;;;6141006;23;20455;-78
2022/07/31 04:13:46;;;;;;;1.40;0.90;;;20.90;90.80;;;;;;6167828;23;20420;-78
2022/07/31 04:16:14;;;;;;;1.43;0.90;;;20.90;90.50;;;;;;6152469;23;20452;-78
2022/07/31 04:18:43;;;;;;;1.40;0.90;;;21.00;90.90;;;;;;6162085;23;20427;-78
2022/07/31 04:21:12;;;;;;;1.43;0.90;;;21.00;90.90;;;;;;6167065;23;20433;-79
2022/07/31 04:23:39;;;;;;;1.43;0.90;;;21.00;90.30;;;;;;6156852;23;20460;-78
2022/07/31 04:26:07;;;;;;;1.50;0.90;;;21.00;90.00;;;;;;6145012;23;20793;-78
2022/07/31 04:28:34;;;;;;;1.43;0.90;;;21.10;90.20;;;;;;6159805;23;20421;-79
2022/07/31 04:31:01;;;;;;;1.43;0.90;;;21.10;90.10;;;;;;6168884;23;20733;-78
2022/07/31 04:33:29;;;;;;;1.43;0.90;;;21.10;89.60;;;;;;6158382;23;20439;-77
2022/07/31 04:35:56;;;;;;;1.50;1.00;;;21.20;90.10;;;;;;6143454;23;20429;-79
2022/07/31 04:38:25;;;;;;;1.47;0.90;;;21.20;89.70;;;;;;6157432;23;20438;-78
2022/07/31 04:41:01;;;;;;;1.50;0.90;;;21.20;89.60;;;;;;6143453;23;20896;-78
2022/07/31 04:43:28;;;;;;;1.47;0.90;;;21.30;89.70;;;;;;6158629;23;20471;-78
2022/07/31 04:45:56;;;;;;;1.43;0.90;;;21.30;89.60;;;;;;6168260;23;20431;-78
2022/07/31 04:48:23;;;;;;;1.47;0.90;;;21.30;89.30;;;;;;6164526;23;20623;-77
2022/07/31 04:50:53;;;;;;;1.43;0.90;;;21.30;89.50;;;;;;6142147;23;20484;-78
2022/07/31 04:53:20;;;;;;;1.43;0.90;;;21.40;89.70;;;;;;6156098;23;20424;-79
2022/07/31 04:58:30;;;;;;;1.43;0.90;;;21.40;90.20;;;;;;6156417;23;20446;-77
2022/07/31 05:00:57;;;;;;;1.40;0.90;;;21.50;89.40;;;;;;6143677;23;20413;-78
2022/07/31 05:03:24;;;;;;;1.50;0.90;;;21.50;89.40;;;;;;6155956;23;20417;-78
2022/07/31 05:05:51;;;;;;;1.47;0.90;;;21.50;89.20;;;;;;6137020;23;20420;-77
2022/07/31 05:08:18;;;;;;;1.40;0.90;;;21.50;89.10;;;;;;6165856;23;20421;-78
2022/07/31 05:13:32;;;;;;;1.43;0.90;;;21.60;88.90;;;;;;6157859;23;20399;-76
2022/07/31 05:16:00;;;;;;;1.40;0.90;;;21.70;89.30;;;;;;6142438;23;20488;-77
2022/07/31 05:18:27;;;;;;;1.43;0.90;;;21.70;89.00;;;;;;6155658;23;20428;-79
2022/07/31 05:20:54;;;;;;;1.43;0.90;;;21.80;88.70;;;;;;6141422;23;20485;-79
2022/07/31 05:23:22;;;;;;;1.47;0.87;;;21.80;88.70;;;;;;6167303;23;20511;-78
2022/07/31 05:25:49;;;;;;;1.43;0.90;;;21.90;88.80;;;;;;6157880;23;20416;-79
2022/07/31 05:28:17;;;;;;;1.50;1.00;;;21.90;88.60;;;;;;6157684;23;20472;-78
2022/07/31 05:30:47;;;;;;;1.47;0.90;;;21.90;88.60;;;;;;6157477;23;20416;-80
2022/07/31 05:33:14;;;;;;;1.50;0.90;;;21.90;88.70;;;;;;6166821;23;20421;-78
2022/07/31 05:35:41;;;;;;;1.47;0.90;;;21.90;88.60;;;;;;6157633;23;20429;-78
2022/07/31 05:38:09;;;;;;;1.43;1.00;;;21.90;88.70;;;;;;6141532;23;20812;-78
2022/07/31 05:40:36;;;;;;;1.50;0.90;;;21.90;88.60;;;;;;6166329;23;20519;-78
2022/07/31 05:43:03;;;;;;;1.47;0.90;;;21.90;88.60;;;;;;6140531;23;20540;-78
2022/07/31 05:45:31;;;;;;;1.50;0.90;;;21.90;88.20;;;;;;6167468;23;20445;-78
2022/07/31 05:48:00;;;;;;;1.50;0.87;;;22.00;88.40;;;;;;6139986;23;20459;-78
2022/07/31 05:50:27;;;;;;;1.50;0.90;;;22.00;88.70;;;;;;6158235;23;20429;-77
2022/07/31 05:52:55;;;;;;;1.43;0.90;;;22.00;88.80;;;;;;6141195;23;20465;-78
2022/07/31 05:55:22;;;;;;;1.47;0.90;;;22.10;89.20;;;;;;6166344;23;20425;-77
2022/07/31 05:57:49;;;;;;;1.47;0.90;;;22.20;89.00;;;;;;6157160;23;20441;-78
2022/07/31 06:00:19;;;;;;;1.50;0.90;;;22.30;89.20;;;;;;6167767;23;20457;-78
2022/07/31 06:02:50;;;;;;;1.50;1.00;;;22.50;88.30;;;;;;6141307;23;20706;-78
2022/07/31 06:05:19;;;;;;;1.43;0.90;;;22.70;87.70;;;;;;6163958;23;20421;-79
2022/07/31 06:07:49;;;;;;;1.50;0.90;;;22.90;87.10;;;;;;6164707;23;20653;-78
2022/07/31 06:10:17;;;;;;;1.47;0.90;;;22.90;86.90;;;;;;6174762;23;20492;-79
2022/07/31 06:12:47;;;;;;;1.40;0.90;;;23.00;87.00;;;;;;6147871;23;20449;-77
2022/07/31 06:15:23;;;;;;;1.50;0.90;;;23.10;86.30;;;;;;6174154;23;20401;-77
2022/07/31 06:17:57;;;;;;;1.47;0.87;;;23.10;86.60;;;;;;6172731;23;20444;-78
2022/07/31 06:20:35;;;;;;;1.43;0.87;;;23.20;86.70;;;;;;6163244;23;20427;-78
2022/07/31 06:23:03;;;;;;;1.47;0.90;;;23.30;86.80;;;;;;6149827;23;20444;-80
2022/07/31 06:25:31;;;;;;;1.40;0.90;;;23.40;86.10;;;;;;6176338;23;20471;-78
2022/07/31 06:27:58;;;;;;;1.47;0.90;;;23.40;86.10;;;;;;6150612;23;20452;-76
2022/07/31 06:30:28;;;;;;;1.60;1.20;;;23.40;86.00;;;;;;6164066;23;20464;-77
2022/07/31 06:32:58;;;;;;;1.47;0.90;;;23.40;86.20;;;;;;6148020;23;20456;-77
2022/07/31 06:35:32;;;;;;;1.43;0.90;;;23.30;86.30;;;;;;6177082;23;20492;-77
2022/07/31 06:38:03;;;;;;;1.50;0.90;;;23.40;86.20;;;;;;6146483;23;20445;-79
2022/07/31 06:40:34;;;;;;;1.50;0.90;;;23.40;86.40;;;;;;6166003;23;20424;-78
2022/07/31 06:43:01;;;;;;;1.47;0.90;;;23.30;86.60;;;;;;6141990;23;20492;-75
2022/07/31 06:45:28;;;;;;;1.47;0.87;;;23.30;86.90;;;;;;6164170;23;20449;-77
2022/07/31 06:47:55;;;;;;;1.43;0.90;;;23.30;86.80;;;;;;6141375;23;20532;-78
2022/07/31 06:50:22;;;;;;;1.50;0.90;;;23.20;87.30;;;;;;6155625;23;20421;-76
2022/07/31 06:52:53;;;;;;;1.47;0.90;;;23.20;87.20;;;;;;6138915;23;20445;-77
2022/07/31 06:55:20;;;;;;;1.43;0.90;;;23.30;87.30;;;;;;6155252;23;20417;-77
2022/07/31 06:57:48;;;;;;;1.40;0.90;;;23.30;86.50;;;;;;6155637;23;20441;-78
2022/07/31 07:00:15;;;;;;;1.50;0.90;;;23.20;86.40;;;;;;6155063;23;20429;-77
2022/07/31 07:02:43;;;;;;;1.47;0.90;;;23.10;86.40;;;;;;6139155;23;20451;-79
2022/07/31 07:05:10;;;;;;;1.40;0.90;;;23.10;86.60;;;;;;6154442;23;20420;-77
2022/07/31 07:07:38;;;;;;;1.43;0.90;;;23.10;86.80;;;;;;6154855;23;20939;-77
2022/07/31 07:10:07;;;;;;;1.47;0.90;;;23.10;86.70;;;;;;6154627;23;20421;-77
2022/07/31 07:12:34;;;;;;;1.50;1.07;;;23.00;87.20;;;;;;6138270;23;20448;-79
2022/07/31 07:15:02;;;;;;;1.40;0.90;;;23.10;86.70;;;;;;6163058;23;20515;-77
2022/07/31 07:17:32;;;;;;;1.43;0.90;;;23.10;86.90;;;;;;6139738;23;20479;-77
2022/07/31 07:20:02;;;;;;;1.43;0.90;;;23.10;87.10;;;;;;6174336;23;20424;-77
2022/07/31 07:23:06;;;;;;;1.43;0.90;;;23.10;87.20;;;;;;6176539;23;20444;-79
2022/07/31 07:28:18;;;;;;;1.50;0.87;;;23.10;87.80;;;;;;6136159;23;20441;-78
2022/07/31 07:30:47;;;;;;;1.50;1.10;;;23.00;87.80;;;;;;6140307;23;20426;-76
2022/07/31 07:33:14;;;;;;;1.50;0.90;;;23.10;88.00;;;;;;6155736;23;20441;-76
2022/07/31 07:35:46;;;;;;;1.43;0.90;;;23.10;88.20;;;;;;6142330;23;20445;-78
2022/07/31 07:38:13;;;;;;;1.47;0.80;;;23.20;87.80;;;;;;6087998;23;20434;-78
2022/07/31 07:40:41;;;;;;;1.47;0.90;;;23.20;87.90;;;;;;6112435;23;20426;-78
2022/07/31 07:43:08;;;;;;;1.40;0.80;;;23.30;87.80;;;;;;6099618;23;20507;-77
2022/07/31 07:45:38;;;;;;;1.43;0.90;;;23.30;88.00;;;;;;6101218;23;20474;-78
2022/07/31 07:48:06;;;;;;;1.50;0.90;;;23.30;88.00;;;;;;6111500;23;20785;-77
2022/07/31 07:50:39;;;;;;;1.40;0.90;;;23.40;88.30;;;;;;6114019;23;20430;-78
2022/07/31 07:53:07;;;;;;;1.47;0.90;;;23.40;88.30;;;;;;6108328;23;20536;-79
2022/07/31 07:55:37;;;;;;;1.50;0.90;;;23.40;88.10;;;;;;6100783;23;20422;-78
2022/07/31 07:58:07;;;;;;;1.47;0.80;;;23.50;88.40;;;;;;6109194;23;20745;-79
2022/07/31 08:00:36;;;;;;;1.50;0.90;;;23.60;89.00;;;;;;6098179;23;20433;-78
2022/07/31 08:03:03;;;;;;;1.43;0.87;;;23.70;88.90;;;;;;6111741;23;20454;-78
2022/07/31 08:05:34;;;;;;;1.47;0.90;;;23.80;88.60;;;;;;6105974;23;20805;-79
2022/07/31 08:08:03;;;;;;;1.50;0.90;;;24.00;88.20;;;;;;6108492;23;20485;-80
2022/07/31 08:10:39;;;;;;;1.50;0.90;;;24.10;88.00;;;;;;6099049;23;20427;-78
2022/07/31 08:13:07;;;;;;;1.43;0.83;;;24.30;87.60;;;;;;6107203;23;20655;-78
2022/07/31 08:15:39;;;;;;;1.47;0.90;;;24.40;87.20;;;;;;6099161;23;20441;-79
2022/07/31 08:18:07;;;;;;;1.47;0.90;;;24.40;87.00;;;;;;6106398;23;20453;-80
2022/07/31 08:20:37;;;;;;;1.50;0.90;;;24.50;86.60;;;;;;6110752;23;20453;-80
2022/07/31 08:23:12;;;;;;;1.50;0.87;;;24.50;86.60;;;;;;6112203;23;20449;-79
2022/07/31 08:25:49;;;;;;;1.47;0.90;;;24.40;87.00;;;;;;6111547;23;20429;-79
2022/07/31 08:28:32;;;;;;;1.50;0.90;;;24.40;87.40;;;;;;6083271;23;20470;-78
2022/07/31 08:34:11;;;;;;;1.47;0.90;;;24.60;87.00;;;;;;6113038;23;20446;-79
2022/07/31 08:37:07;;;;;;;1.43;0.90;;;24.90;86.50;;;;;;6079997;23;20500;-78
2022/07/31 08:39:58;;;;;;;1.47;0.80;;;25.10;85.70;;;;;;6104126;23;20434;-79
2022/07/31 08:42:26;;;;;;;1.47;0.80;;;25.30;85.20;;;;;;6100202;23;20422;-80
2022/07/31 08:44:53;;;;;;;1.47;0.90;;;25.50;85.00;;;;;;6108288;23;20426;-79
2022/07/31 08:47:45;;;;;;;1.50;0.90;;;25.60;84.30;;;;;;6099197;23;20446;-77
2022/07/31 08:50:17;;;;;;;1.47;0.90;;;25.80;84.20;;;;;;6098994;23;20511;-78
2022/07/31 08:53:31;;;;;;;1.50;0.90;;;26.00;83.90;;;;;;6107434;23;20449;-78
2022/07/31 09:01:22;;;;;;;1.50;0.80;;;26.80;80.90;;;;;;6068858;23;20427;-77
2022/07/31 09:07:19;;;;;;;1.47;0.90;;;27.10;79.50;;;;;;6034792;23;20446;-79
2022/07/31 09:09:55;;;;;;;1.47;0.80;;;27.00;79.70;;;;;;6109001;23;20508;-79
2022/07/31 09:12:33;;;;;;;1.47;0.80;;;27.10;80.40;;;;;;6105258;23;20512;-80
2022/07/31 09:15:02;;;;;;;1.80;1.10;;;27.20;79.10;;;;;;6096879;23;20416;-79
2022/07/31 09:17:55;;;;;;;1.47;0.90;;;27.20;79.20;;;;;;6083552;23;20782;-78
2022/07/31 09:20:28;;;;;;;1.60;1.00;;;27.20;79.50;;;;;;6108183;23;20430;-78
2022/07/31 09:23:18;;;;;;;1.50;0.80;;;27.30;79.40;;;;;;6078530;23;20481;-78
2022/07/31 09:26:36;;;;;;;1.47;0.90;;;27.50;79.20;;;;;;6098215;23;20457;-78
2022/07/31 09:29:20;;;;;;;1.40;0.80;;;27.60;79.20;;;;;;6061124;23;20430;-78
2022/07/31 09:32:02;;;;;;;1.50;0.90;;;27.60;78.80;;;;;;6097622;23;20912;-79
2022/07/31 09:34:42;;;;;;;1.40;0.80;;;27.60;78.40;;;;;;6121546;23;20430;-81
2022/07/31 09:42:47;;;;;;;1.70;1.20;;;27.70;78.50;;;;;;6120080;23;20495;-78
2022/07/31 09:48:34;;;;;;;1.47;0.80;;;27.90;77.70;;;;;;5942345;24;21027;-76
2022/07/31 09:51:52;;;;;;;1.40;0.80;;;27.90;77.80;;;;;;6090670;23;20403;-79
2022/07/31 09:55:47;;;;;;;1.60;0.90;;;27.80;78.40;;;;;;6118957;23;20425;-79
2022/07/31 09:59:09;;;;;;;1.50;0.90;;;27.70;79.00;;;;;;5963315;23;21083;-78
2022/07/31 10:01:52;;;;;;;1.43;0.90;;;27.50;79.20;;;;;;5934978;23;20936;-78
2022/07/31 10:04:34;;;;;;;1.47;0.80;;;27.40;79.20;;;;;;6060095;23;20429;-79
2022/07/31 10:09:56;;;;;;;1.40;0.80;;;27.50;79.50;;;;;;6031281;23;20449;-77
2022/07/31 10:12:50;;;;;;;1.40;0.80;;;27.60;79.00;;;;;;6107302;23;20807;-79
2022/07/31 10:18:38;;;;;;;1.43;0.80;;;27.70;78.80;;;;;;6129335;23;20515;-78
2022/07/31 10:24:51;;;;;;;1.43;0.80;;;27.90;77.80;;;;;;6079128;23;20445;-79
2022/07/31 10:27:20;;;;;;;1.43;0.90;;;28.10;78.20;;;;;;6055857;23;20451;-79
2022/07/31 10:30:04;;;;;;;1.50;0.80;;;28.30;76.90;;;;;;6078489;23;20667;-79
2022/07/31 10:32:58;;;;;;;1.47;0.80;;;28.40;76.50;;;;;;6106331;23;20449;-80
2022/07/31 10:35:34;;;;;;;1.43;0.80;;;28.50;76.70;;;;;;6111286;23;20814;-77
2022/07/31 10:38:38;;;;;;;1.50;0.80;;;28.50;75.70;;;;;;6106320;23;20480;-78
2022/07/31 10:41:42;;;;;;;1.47;0.80;;;28.60;76.70;;;;;;6099654;23;20440;-78
2022/07/31 10:44:44;;;;;;;1.43;0.80;;;28.80;76.50;;;;;;6100786;23;20762;-78
2022/07/31 11:18:29;;;;;;;1.43;0.80;;;29.00;75.00;;;;;;5822875;24;20461;-77
2022/07/31 11:28:26;;;;;;;1.43;0.90;;;29.00;74.80;;;;;;6052593;23;20468;-78
2022/07/31 11:31:01;;;;;;;1.47;0.80;;;29.00;74.30;;;;;;6092927;23;20586;-79
2022/07/31 11:33:45;;;;;;;1.47;0.80;;;29.00;74.90;;;;;;6128495;23;20516;-78
2022/07/31 11:40:37;;;;;;;2.37;1.37;;;29.10;74.00;;;;;;5904033;23;20495;-77
2022/07/31 11:46:39;;;;;;;1.40;0.80;;;29.20;73.20;;;;;;6087278;23;20548;-78
2022/07/31 11:49:31;;;;;;;1.43;0.80;;;29.20;74.60;;;;;;6109323;23;20418;-78
2022/07/31 11:52:07;;;;;;;1.47;0.80;;;29.20;73.90;;;;;;6098334;23;20480;-78
2022/07/31 11:54:40;;;;;;;1.43;0.90;;;29.20;73.70;;;;;;6135806;23;20452;-78
2022/07/31 11:57:19;;;;;;;1.47;0.80;;;29.10;74.50;;;;;;6113473;23;20457;-78
2022/07/31 11:59:50;;;;;;;1.43;0.80;;;29.20;74.70;;;;;;6102461;23;20410;-77
2022/07/31 12:15:55;;;;;;;1.47;0.83;;;30.80;68.90;;;;;;6030508;23;20506;-78
2022/07/31 12:28:51;;;;;;;;;;;;;;;;;;;;;
2022/07/31 12:32:05;;;;;;;;;;;;;;;;;;;;;
2022/07/31 12:41:21;;;;;;;1.43;0.80;;;30.60;69.90;;;;;;5905320;23;20433;-78
2022/07/31 12:57:37;;;;;;;1.43;0.80;;;30.30;71.30;;;;;;6093204;23;20453;-77
2022/07/31 13:09:36;;;;;;;1.43;0.80;;;30.20;72.10;;;;;;6144683;23;21029;-78
2022/07/31 13:14:33;;;;;;;1.43;0.80;;;30.20;71.60;;;;;;6152806;23;20469;-81
2022/07/31 13:17:00;;;;;;;1.47;0.80;;;30.10;71.80;;;;;;6156850;23;20420;-82
2022/07/31 13:19:28;;;;;;;1.50;0.80;;;30.00;72.80;;;;;;6154570;23;20455;-82
2022/07/31 13:21:55;;;;;;;1.47;0.80;;;30.10;72.70;;;;;;6161941;23;20772;-82
2022/07/31 13:24:22;;;;;;;1.47;0.80;;;30.20;72.20;;;;;;6126070;23;20963;-80
2022/07/31 13:26:52;;;;;;;1.43;0.80;;;30.30;72.50;;;;;;6127620;23;20421;-81
2022/07/31 13:29:19;;;;;;;1.43;0.80;;;30.20;71.50;;;;;;6126908;23;20517;-82
2022/07/31 13:31:46;;;;;;;1.40;0.80;;;30.40;72.00;;;;;;6127852;23;20452;-80
2022/07/31 13:34:13;;;;;;;1.60;1.10;;;30.30;71.40;;;;;;6126606;23;20959;-82
2022/07/31 13:36:41;;;;;;;1.47;0.80;;;30.20;71.00;;;;;;6128548;23;20834;-81
2022/07/31 13:39:08;;;;;;;1.47;0.80;;;30.10;71.70;;;;;;6127164;23;20421;-81
2022/07/31 13:41:35;;;;;;;1.47;0.80;;;30.00;72.00;;;;;;6126043;23;20424;-81
2022/07/31 13:44:03;;;;;;;1.43;0.80;;;29.90;72.30;;;;;;6125829;23;20445;-80
2022/07/31 13:46:30;;;;;;;1.43;0.80;;;29.80;73.30;;;;;;6125903;23;20431;-80
2022/07/31 13:48:58;;;;;;;1.40;0.80;;;29.80;73.20;;;;;;6126957;23;20432;-82
2022/07/31 13:51:25;;;;;;;1.47;0.80;;;29.70;73.40;;;;;;6127663;23;20418;-81
2022/07/31 13:53:53;;;;;;;1.43;0.80;;;29.60;73.10;;;;;;6126985;23;20460;-79
2022/07/31 13:56:20;;;;;;;1.47;0.80;;;29.50;73.80;;;;;;6125829;23;20472;-81
2022/07/31 13:58:47;;;;;;;1.43;0.80;;;29.40;74.50;;;;;;6135613;23;20440;-80
2022/07/31 14:01:14;;;;;;;1.43;0.80;;;29.30;74.30;;;;;;6124229;23;20425;-83
2022/07/31 14:03:40;;;;;;;1.47;0.80;;;29.30;74.60;;;;;;6124847;23;20452;-80
2022/07/31 14:06:07;;;;;;;1.43;0.80;;;29.40;75.30;;;;;;6124942;23;20431;-80
2022/07/31 14:08:34;;;;;;;1.43;0.80;;;29.50;75.50;;;;;;6124417;23;20425;-80
2022/07/31 14:11:03;;;;;;;1.43;0.80;;;29.50;75.50;;;;;;6124505;23;20421;-80
2022/07/31 14:13:30;;;;;;;1.47;0.80;;;29.70;74.60;;;;;;6125691;23;20838;-80
2022/07/31 14:15:57;;;;;;;1.50;1.03;;;29.80;74.40;;;;;;6126885;23;20464;-82
2022/07/31 14:18:24;;;;;;;1.40;0.80;;;29.90;73.30;;;;;;6125852;23;20421;-80
2022/07/31 14:20:51;;;;;;;1.40;0.80;;;29.90;72.50;;;;;;6109840;23;20421;-80
2022/07/31 14:23:18;;;;;;;1.40;0.80;;;29.90;72.80;;;;;;6147264;23;20484;-81
2022/07/31 14:25:45;;;;;;;1.47;0.80;;;29.90;72.30;;;;;;6124698;23;20421;-82
2022/07/31 14:28:13;;;;;;;1.43;0.80;;;29.80;73.00;;;;;;6105251;23;20483;-80
2022/07/31 14:30:44;;;;;;;1.43;0.80;;;29.80;72.50;;;;;;6122310;23;20449;-81
2022/07/31 14:33:12;;;;;;;1.40;0.80;;;29.90;73.10;;;;;;6103414;23;20998;-81
2022/07/31 14:35:40;;;;;;;1.50;0.80;;;29.80;72.40;;;;;;6116719;23;20998;-81
2022/07/31 14:38:06;;;;;;;1.43;0.80;;;29.70;72.60;;;;;;6131113;23;20449;-80
2022/07/31 14:40:34;;;;;;;1.43;0.80;;;29.60;73.00;;;;;;6124332;23;20758;-80
2022/07/31 14:43:00;;;;;;;1.47;0.80;;;29.60;73.10;;;;;;6121267;23;20491;-82
2022/07/31 14:45:29;;;;;;;1.43;0.80;;;29.70;74.30;;;;;;6115848;23;20432;-82
2022/07/31 14:47:57;;;;;;;1.60;1.13;;;29.70;73.80;;;;;;6133041;23;20483;-81
2022/07/31 14:50:24;;;;;;;1.40;0.80;;;29.80;73.00;;;;;;6134314;23;20488;-80
2022/07/31 14:52:51;;;;;;;1.50;1.00;;;29.90;72.50;;;;;;6132368;23;20559;-81
2022/07/31 14:55:18;;;;;;;1.43;0.80;;;29.90;72.20;;;;;;6124893;23;20912;-80
2022/07/31 14:57:45;;;;;;;1.40;0.80;;;29.90;72.30;;;;;;6125569;23;20797;-80
2022/07/31 15:00:13;;;;;;;1.47;0.80;;;29.80;72.30;;;;;;6122045;23;20772;-80
2022/07/31 15:02:43;;;;;;;1.43;0.80;;;29.80;72.40;;;;;;6127402;23;20761;-82
2022/07/31 15:05:10;;;;;;;1.40;0.80;;;29.70;72.80;;;;;;6130235;23;20537;-80
2022/07/31 15:07:37;;;;;;;1.43;0.80;;;29.70;72.80;;;;;;6124811;23;20452;-79
2022/07/31 15:10:05;;;;;;;1.40;0.80;;;29.80;72.50;;;;;;6119757;23;20505;-78
2022/07/31 15:12:32;;;;;;;1.40;0.80;;;29.80;72.20;;;;;;6114139;23;20481;-78
2022/07/31 15:14:59;;;;;;;1.47;0.80;;;29.80;72.90;;;;;;6116222;23;20406;-79
2022/07/31 15:17:26;;;;;;;1.47;0.80;;;30.00;72.60;;;;;;6122965;23;20980;-79
2022/07/31 15:19:54;;;;;;;1.43;0.80;;;30.30;71.60;;;;;;6121444;23;20432;-80
2022/07/31 15:25:30;;;;;;;1.40;0.80;;;30.40;71.60;;;;;;6122411;23;20444;-79
2022/07/31 15:27:57;;;;;;;1.43;0.80;;;30.20;71.10;;;;;;6125717;23;20452;-78
2022/07/31 15:30:24;;;;;;;1.43;0.80;;;30.20;71.40;;;;;;6117441;23;20431;-79
2022/07/31 15:32:52;;;;;;;1.50;0.93;;;30.20;71.30;;;;;;6126656;23;20455;-79